« Back
NWS Peachtree City, Ga » Text Product » ATL Terminal Aerodrome Forecast


Printer-friendly Version
Current Version              Previous Versions:   1  2  3  4  5  6  7  8  9  

Terminal Aerodrome Forecast

906
FTUS42 KFFC 261736
TAFATL
TAF
KATL 261736Z 2618/2724 09005KT P6SM SCT045
      TEMPO 2620/2623 6SM TSRA BR BKN035CB
     FM270100 10004KT P6SM SCT250
     FM271500 09007KT P6SM SCT045
     FM271900 10010KT P6SM SCT060=



USA.gov is the U.S. government's official web portal to all federal, state and local government web resources and services.